Falcona — ER2662 — position and weather

sailwx.info

Track history (hours):
 
Tides and Currents Weather Stations Pressure Air Temp Water Temp Dewpoint Dewpoint Depression Visibility Wind Speed Wind Dir Waves Ship Positions

Falcona

Last reported at 2018-Aug-17 22:49 UTC. Time now 2018-Aug-21 03:55 UTC.
Position N 42°53' E 032°30'.

Length 82 m; draft 2.3 m.

MMSI: 214182662.

Date/timePositionNaut miles runAvg speedWind from/ knotsBaromVisibWave heightAir tempDewpointWater temp
2018-Aug-17 22:49N 42°53' E 032°30'2 7.9
2018-Aug-17 22:31N 42°52' E 032°27'4 7.8
2018-Aug-17 22:00N 42°50' E 032°23'4 7.8
2018-Aug-17 21:30N 42°48' E 032°18'4 7.7
2018-Aug-17 21:01N 42°46' E 032°14'4 7.7
2018-Aug-17 20:31N 42°43' E 032°09'4 7.6
2018-Aug-17 20:01N 42°41' E 032°05'4 7.6
2018-Aug-17 19:29N 42°39' E 032°01'4 7.5
2018-Aug-17 18:59N 42°37' E 031°56'4 7.4
2018-Aug-17 18:30N 42°35' E 031°52'4 7.5
2018-Aug-17 18:00N 42°33' E 031°48'4 7.5
2018-Aug-17 17:30N 42°31' E 031°44'10 7.3
2018-Aug-17 16:04N 42°25' E 031°32'1 7.2
2018-Aug-17 16:00N 42°25' E 031°32'4 7.2
2018-Aug-17 15:31N 42°23' E 031°28'4 7.2
2018-Aug-17 15:00N 42°21' E 031°23'4 7.0
2018-Aug-17 14:29N 42°19' E 031°19'23 7.2
2018-Aug-17 11:18N 42°06' E 030°53'4 7.4
2018-Aug-17 10:50N 42°04' E 030°49'87 7.9
2018-Aug-16 23:47N 41°16' E 029°13'2 7.6
2018-Aug-16 23:30N 41°14' E 029°10'  
2018-Aug-08 16:33N 37°39' E 023°45'0 6.3
2018-Aug-08 16:29N 37°39' E 023°44'3 5.8
2018-Aug-08 16:01N 37°40' E 023°41'3 6.9
2018-Aug-08 15:30N 37°43' E 023°39'6 7.0
2018-Aug-08 14:40N 37°48' E 023°35'1 6.9
2018-Aug-08 14:30N 37°49' E 023°34'3 6.6
2018-Aug-08 13:59N 37°50' E 023°30'3 6.7
2018-Aug-08 13:30N 37°50' E 023°26'3 6.8
2018-Aug-08 13:00N 37°51' E 023°22'4 7.1
2018-Aug-08 12:30N 37°52' E 023°17'3 6.9
2018-Aug-08 12:00N 37°52' E 023°13'4 7.1
2018-Aug-08 11:30N 37°53' E 023°09'4 7.4
2018-Aug-08 11:00N 37°53' E 023°04'3 6.0
2018-Aug-08 10:30N 37°55' E 023°01'3 5.9
2018-Aug-08 09:59N 37°57' E 022°58'2 3.5
2018-Aug-08 09:30N 37°58' E 022°56'1 1.5
2018-Aug-08 09:00N 37°58' E 022°55'2 4.2
2018-Aug-08 08:30N 37°59' E 022°53'4 7.4
2018-Aug-08 08:00N 38°01' E 022°49'  
Track history (hours):
 
Tides and Currents Weather Stations Pressure Air Temp Water Temp Dewpoint Dewpoint Depression Visibility Wind Speed Wind Dir Waves Ship Positions

Falcona

Last reported at 2018-Aug-17 22:49 UTC. Time now 2018-Aug-21 03:55 UTC.
Position N 42°53' E 032°30'.

Length 82 m; draft 2.3 m.

MMSI: 214182662.

Date/timePositionNaut miles runAvg speedWind from/ knotsBaromVisibWave heightAir tempDewpointWater temp
2018-Aug-17 22:49N 42°53' E 032°30'2 7.9
2018-Aug-17 22:31N 42°52' E 032°27'4 7.8
2018-Aug-17 22:00N 42°50' E 032°23'4 7.8
2018-Aug-17 21:30N 42°48' E 032°18'4 7.7
2018-Aug-17 21:01N 42°46' E 032°14'4 7.7
2018-Aug-17 20:31N 42°43' E 032°09'4 7.6
2018-Aug-17 20:01N 42°41' E 032°05'4 7.6
2018-Aug-17 19:29N 42°39' E 032°01'4 7.5
2018-Aug-17 18:59N 42°37' E 031°56'4 7.4
2018-Aug-17 18:30N 42°35' E 031°52'4 7.5
2018-Aug-17 18:00N 42°33' E 031°48'4 7.5
2018-Aug-17 17:30N 42°31' E 031°44'10 7.3
2018-Aug-17 16:04N 42°25' E 031°32'1 7.2
2018-Aug-17 16:00N 42°25' E 031°32'4 7.2
2018-Aug-17 15:31N 42°23' E 031°28'4 7.2
2018-Aug-17 15:00N 42°21' E 031°23'4 7.0
2018-Aug-17 14:29N 42°19' E 031°19'23 7.2
2018-Aug-17 11:18N 42°06' E 030°53'4 7.4
2018-Aug-17 10:50N 42°04' E 030°49'87 7.9
2018-Aug-16 23:47N 41°16' E 029°13'2 7.6
2018-Aug-16 23:30N 41°14' E 029°10'  
2018-Aug-08 16:33N 37°39' E 023°45'0 6.3
2018-Aug-08 16:29N 37°39' E 023°44'3 5.8
2018-Aug-08 16:01N 37°40' E 023°41'3 6.9
2018-Aug-08 15:30N 37°43' E 023°39'6 7.0
2018-Aug-08 14:40N 37°48' E 023°35'1 6.9
2018-Aug-08 14:30N 37°49' E 023°34'3 6.6
2018-Aug-08 13:59N 37°50' E 023°30'3 6.7
2018-Aug-08 13:30N 37°50' E 023°26'3 6.8
2018-Aug-08 13:00N 37°51' E 023°22'4 7.1
2018-Aug-08 12:30N 37°52' E 023°17'3 6.9
2018-Aug-08 12:00N 37°52' E 023°13'4 7.1
2018-Aug-08 11:30N 37°53' E 023°09'4 7.4
2018-Aug-08 11:00N 37°53' E 023°04'3 6.0
2018-Aug-08 10:30N 37°55' E 023°01'3 5.9
2018-Aug-08 09:59N 37°57' E 022°58'2 3.5
2018-Aug-08 09:30N 37°58' E 022°56'1 1.5
2018-Aug-08 09:00N 37°58' E 022°55'2 4.2
2018-Aug-08 08:30N 37°59' E 022°53'4 7.4
2018-Aug-08 08:00N 38°01' E 022°49'  

Dump ship's entire track history